This is the latest recevied weather packets stored in our database for station/object K4XP. If no packets are shown the sender has not sent any weather packets the latest 10 day(s).
| Time | Temp. | Humidity | Pressure | Rain* | Wind** | Luminosity | Snow |
|---|---|---|---|---|---|---|---|
| 1788450323 | 32.78° C | 65% | 1018.7 hPa | 0 mm | - | - | - |
| 1788450024 | 32.78° C | 65% | 1018.8 hPa | 0 mm | - | - | - |
| 1788449730 | 32.22° C | 67% | 1018.8 hPa | 0 mm | - | - | - |
| 1788449412 | 32.22° C | 68% | 1018.7 hPa | 0 mm | - | - | - |
| 1788449118 | 32.22° C | 67% | 1018.7 hPa | 0 mm | - | - | - |
| 1788447913 | 31.67° C | 69% | 1018.7 hPa | 0 mm | - | - | - |
| 1788447322 | 31.11° C | 70% | 1018.6 hPa | 0 mm | - | - | - |
| 1788446711 | 31.11° C | 70% | 1018.5 hPa | 0 mm | - | - | - |
| 1788445217 | 30° C | 73% | 1018.5 hPa | 0 mm | - | - | - |
| 1788444923 | 30° C | 73% | 1018.5 hPa | 0 mm | - | - | - |
| 1788444622 | 29.44° C | 74% | 1018.6 hPa | 0 mm | - | - | - |
| 1788444329 | 29.44° C | 75% | 1018.6 hPa | 0 mm | - | - | - |
| 1788444030 | 28.89° C | 75% | 1018.6 hPa | 0 mm | - | - | - |
| 1788443716 | 28.89° C | 76% | 1018.6 hPa | 0 mm | - | - | - |
| 1788443415 | 28.33° C | 79% | 1018.6 hPa | 0 mm | - | - | - |
| 1788443122 | 27.78° C | 80% | 1018.6 hPa | 0 mm | - | - | - |
| 1788442828 | 27.22° C | 82% | 1018.7 hPa | 0 mm | - | - | - |
| 1788442527 | 27.22° C | 83% | 1018.7 hPa | 0 mm | - | - | - |
| 1788442237 | 26.67° C | 83% | 1018.8 hPa | 0 mm | - | - | - |
| 1788440120 | 25.56° C | 88% | 1018.9 hPa | 0 mm | - | - | - |
| 1788439823 | 25.56° C | 88% | 1018.8 hPa | 0 mm | - | - | - |
| 1788439524 | 25.56° C | 89% | 1018.9 hPa | 0 mm | - | - | - |
| 1788439234 | 25.56° C | 89% | 1019 hPa | 0 mm | - | - | - |
| 1788438915 | 25.56° C | 90% | 1018.9 hPa | 0 mm | - | - | - |
| 1788438627 | 25° C | 90% | 1018.9 hPa | 0 mm | - | - | - |
* Rain latest hour (hover to see other rain measurements)
** Current wind speed in m/s (hover to see current wind gust speed)